sensor_id;sensor_type;location;lat;lon;timestamp;P1;durP1;ratioP1;P2;durP2;ratioP2
52858;SDS011;38721;53.098;6.596;2022-12-10T00:01:20;71.05;;;28.70;;
52858;SDS011;38721;53.098;6.596;2022-12-10T00:03:47;83.45;;;29.90;;
52858;SDS011;38721;53.098;6.596;2022-12-10T00:06:15;75.22;;;28.85;;
52858;SDS011;38721;53.098;6.596;2022-12-10T00:08:42;74.93;;;28.00;;
52858;SDS011;38721;53.098;6.596;2022-12-10T00:11:10;77.47;;;28.70;;
52858;SDS011;38721;53.098;6.596;2022-12-10T00:13:38;79.50;;;28.25;;
52858;SDS011;38721;53.098;6.596;2022-12-10T00:16:08;80.13;;;27.80;;
52858;SDS011;38721;53.098;6.596;2022-12-10T00:18:35;77.68;;;26.60;;
52858;SDS011;38721;53.098;6.596;2022-12-10T00:21:03;85.68;;;27.95;;
52858;SDS011;38721;53.098;6.596;2022-12-10T00:23:41;82.57;;;29.45;;
52858;SDS011;38721;53.098;6.596;2022-12-10T00:26:08;77.28;;;27.85;;
52858;SDS011;38721;53.098;6.596;2022-12-10T00:28:38;85.00;;;28.02;;
52858;SDS011;38721;53.098;6.596;2022-12-10T00:31:06;85.47;;;28.92;;
52858;SDS011;38721;53.098;6.596;2022-12-10T00:33:42;86.28;;;28.65;;
52858;SDS011;38721;53.098;6.596;2022-12-10T00:36:11;80.22;;;28.92;;
52858;SDS011;38721;53.098;6.596;2022-12-10T00:38:44;83.07;;;28.92;;
52858;SDS011;38721;53.098;6.596;2022-12-10T00:41:11;96.40;;;30.05;;
52858;SDS011;38721;53.098;6.596;2022-12-10T00:43:37;83.82;;;29.25;;
52858;SDS011;38721;53.098;6.596;2022-12-10T00:46:03;92.82;;;31.58;;
52858;SDS011;38721;53.098;6.596;2022-12-10T00:48:30;82.78;;;29.65;;
52858;SDS011;38721;53.098;6.596;2022-12-10T00:51:03;87.20;;;29.85;;
52858;SDS011;38721;53.098;6.596;2022-12-10T00:53:31;81.10;;;29.33;;
52858;SDS011;38721;53.098;6.596;2022-12-10T00:56:01;85.10;;;29.10;;
52858;SDS011;38721;53.098;6.596;2022-12-10T00:58:31;87.18;;;29.42;;
52858;SDS011;38721;53.098;6.596;2022-12-10T01:03:33;83.28;;;29.42;;
52858;SDS011;38721;53.098;6.596;2022-12-10T01:08:38;94.30;;;31.77;;
52858;SDS011;38721;53.098;6.596;2022-12-10T01:11:04;85.95;;;28.95;;
52858;SDS011;38721;53.098;6.596;2022-12-10T01:13:30;83.57;;;29.27;;
52858;SDS011;38721;53.098;6.596;2022-12-10T01:15:55;90.55;;;30.38;;
52858;SDS011;38721;53.098;6.596;2022-12-10T01:18:21;87.65;;;29.08;;
52858;SDS011;38721;53.098;6.596;2022-12-10T01:20:50;82.68;;;29.13;;
52858;SDS011;38721;53.098;6.596;2022-12-10T01:23:15;84.07;;;31.55;;
52858;SDS011;38721;53.098;6.596;2022-12-10T01:25:41;87.78;;;29.02;;
52858;SDS011;38721;53.098;6.596;2022-12-10T01:28:07;90.03;;;28.85;;
52858;SDS011;38721;53.098;6.596;2022-12-10T01:30:32;86.43;;;29.17;;
52858;SDS011;38721;53.098;6.596;2022-12-10T01:32:58;91.30;;;30.33;;
52858;SDS011;38721;53.098;6.596;2022-12-10T01:35:24;86.28;;;29.00;;
52858;SDS011;38721;53.098;6.596;2022-12-10T01:37:49;85.75;;;29.75;;
52858;SDS011;38721;53.098;6.596;2022-12-10T01:40:15;87.68;;;29.35;;
52858;SDS011;38721;53.098;6.596;2022-12-10T01:42:41;94.47;;;29.63;;
52858;SDS011;38721;53.098;6.596;2022-12-10T01:45:11;93.05;;;30.90;;
52858;SDS011;38721;53.098;6.596;2022-12-10T01:47:38;95.55;;;32.13;;
52858;SDS011;38721;53.098;6.596;2022-12-10T01:50:05;86.93;;;30.55;;
52858;SDS011;38721;53.098;6.596;2022-12-10T01:52:32;92.43;;;31.55;;
52858;SDS011;38721;53.098;6.596;2022-12-10T01:55:06;90.55;;;31.15;;
52858;SDS011;38721;53.098;6.596;2022-12-10T01:57:34;100.25;;;32.53;;
52858;SDS011;38721;53.098;6.596;2022-12-10T02:00:02;98.20;;;31.38;;
52858;SDS011;38721;53.098;6.596;2022-12-10T02:05:33;92.32;;;31.63;;
52858;SDS011;38721;53.098;6.596;2022-12-10T02:13:44;96.30;;;33.03;;
52858;SDS011;38721;53.098;6.596;2022-12-10T02:16:30;99.90;;;32.90;;
52858;SDS011;38721;53.098;6.596;2022-12-10T02:21:45;100.07;;;31.77;;
52858;SDS011;38721;53.098;6.596;2022-12-10T02:24:16;107.28;;;33.30;;
52858;SDS011;38721;53.098;6.596;2022-12-10T02:29:31;98.37;;;31.73;;
52858;SDS011;38721;53.098;6.596;2022-12-10T02:34:28;96.60;;;32.25;;
52858;SDS011;38721;53.098;6.596;2022-12-10T02:37:00;95.68;;;32.05;;
52858;SDS011;38721;53.098;6.596;2022-12-10T02:39:35;100.10;;;31.98;;
52858;SDS011;38721;53.098;6.596;2022-12-10T02:42:07;104.33;;;32.17;;
52858;SDS011;38721;53.098;6.596;2022-12-10T02:44:36;97.10;;;32.15;;
52858;SDS011;38721;53.098;6.596;2022-12-10T02:47:04;94.65;;;32.00;;
52858;SDS011;38721;53.098;6.596;2022-12-10T02:49:31;101.22;;;35.40;;
52858;SDS011;38721;53.098;6.596;2022-12-10T02:51:59;98.97;;;34.03;;
52858;SDS011;38721;53.098;6.596;2022-12-10T03:00:20;100.50;;;33.00;;
52858;SDS011;38721;53.098;6.596;2022-12-10T03:07:47;99.82;;;34.17;;
52858;SDS011;38721;53.098;6.596;2022-12-10T03:13:08;102.13;;;33.75;;
52858;SDS011;38721;53.098;6.596;2022-12-10T03:15:38;104.70;;;34.80;;
52858;SDS011;38721;53.098;6.596;2022-12-10T03:18:06;105.82;;;34.65;;
52858;SDS011;38721;53.098;6.596;2022-12-10T03:20:34;109.30;;;34.38;;
52858;SDS011;38721;53.098;6.596;2022-12-10T03:23:04;99.75;;;34.30;;
52858;SDS011;38721;53.098;6.596;2022-12-10T03:25:33;108.68;;;35.38;;
52858;SDS011;38721;53.098;6.596;2022-12-10T03:28:01;99.22;;;33.35;;
52858;SDS011;38721;53.098;6.596;2022-12-10T03:30:30;103.28;;;35.00;;
52858;SDS011;38721;53.098;6.596;2022-12-10T03:32:58;105.85;;;35.42;;
52858;SDS011;38721;53.098;6.596;2022-12-10T03:35:25;106.63;;;35.83;;
52858;SDS011;38721;53.098;6.596;2022-12-10T03:37:51;105.00;;;34.13;;
52858;SDS011;38721;53.098;6.596;2022-12-10T03:40:18;112.20;;;35.50;;
52858;SDS011;38721;53.098;6.596;2022-12-10T03:42:47;110.15;;;35.47;;
52858;SDS011;38721;53.098;6.596;2022-12-10T03:45:13;110.90;;;33.65;;
52858;SDS011;38721;53.098;6.596;2022-12-10T03:47:40;105.35;;;34.88;;
52858;SDS011;38721;53.098;6.596;2022-12-10T03:50:06;122.88;;;35.92;;
52858;SDS011;38721;53.098;6.596;2022-12-10T03:52:32;122.00;;;35.42;;
52858;SDS011;38721;53.098;6.596;2022-12-10T03:54:58;115.22;;;35.72;;
52858;SDS011;38721;53.098;6.596;2022-12-10T03:57:24;115.57;;;34.75;;
52858;SDS011;38721;53.098;6.596;2022-12-10T03:59:50;108.22;;;34.72;;
52858;SDS011;38721;53.098;6.596;2022-12-10T04:02:16;104.45;;;31.05;;
52858;SDS011;38721;53.098;6.596;2022-12-10T04:04:42;108.38;;;33.70;;
52858;SDS011;38721;53.098;6.596;2022-12-10T04:07:07;117.88;;;35.28;;
52858;SDS011;38721;53.098;6.596;2022-12-10T04:09:34;110.00;;;34.20;;
52858;SDS011;38721;53.098;6.596;2022-12-10T04:11:59;116.97;;;34.55;;
52858;SDS011;38721;53.098;6.596;2022-12-10T04:14:26;113.25;;;33.95;;
52858;SDS011;38721;53.098;6.596;2022-12-10T04:17:13;119.68;;;35.22;;
52858;SDS011;38721;53.098;6.596;2022-12-10T04:19:39;109.93;;;33.85;;
52858;SDS011;38721;53.098;6.596;2022-12-10T04:22:05;102.55;;;35.22;;
52858;SDS011;38721;53.098;6.596;2022-12-10T04:24:49;110.82;;;35.30;;
52858;SDS011;38721;53.098;6.596;2022-12-10T04:27:36;113.60;;;33.80;;
52858;SDS011;38721;53.098;6.596;2022-12-10T04:30:04;113.65;;;35.85;;
52858;SDS011;38721;53.098;6.596;2022-12-10T04:32:32;104.90;;;33.80;;
52858;SDS011;38721;53.098;6.596;2022-12-10T04:34:58;109.93;;;34.10;;
52858;SDS011;38721;53.098;6.596;2022-12-10T04:37:26;97.20;;;31.10;;
52858;SDS011;38721;53.098;6.596;2022-12-10T04:39:53;114.78;;;33.45;;
52858;SDS011;38721;53.098;6.596;2022-12-10T04:42:19;105.70;;;32.17;;
52858;SDS011;38721;53.098;6.596;2022-12-10T04:44:46;109.20;;;33.30;;
52858;SDS011;38721;53.098;6.596;2022-12-10T04:47:12;108.88;;;34.58;;
52858;SDS011;38721;53.098;6.596;2022-12-10T04:49:38;106.43;;;32.97;;
52858;SDS011;38721;53.098;6.596;2022-12-10T04:52:08;106.07;;;33.50;;
52858;SDS011;38721;53.098;6.596;2022-12-10T04:54:36;105.70;;;33.15;;
52858;SDS011;38721;53.098;6.596;2022-12-10T04:57:05;111.75;;;35.13;;
52858;SDS011;38721;53.098;6.596;2022-12-10T04:59:31;106.25;;;32.00;;
52858;SDS011;38721;53.098;6.596;2022-12-10T05:01:57;113.03;;;35.42;;
52858;SDS011;38721;53.098;6.596;2022-12-10T05:04:23;104.68;;;34.25;;
52858;SDS011;38721;53.098;6.596;2022-12-10T05:06:48;110.75;;;36.65;;
52858;SDS011;38721;53.098;6.596;2022-12-10T05:09:14;107.78;;;34.08;;
52858;SDS011;38721;53.098;6.596;2022-12-10T05:11:40;110.15;;;34.40;;
52858;SDS011;38721;53.098;6.596;2022-12-10T05:14:08;102.88;;;32.85;;
52858;SDS011;38721;53.098;6.596;2022-12-10T05:16:36;115.13;;;36.88;;
52858;SDS011;38721;53.098;6.596;2022-12-10T05:19:02;117.72;;;34.70;;
52858;SDS011;38721;53.098;6.596;2022-12-10T05:21:29;111.65;;;35.67;;
52858;SDS011;38721;53.098;6.596;2022-12-10T05:24:17;115.93;;;34.20;;
52858;SDS011;38721;53.098;6.596;2022-12-10T05:26:46;120.70;;;35.70;;
52858;SDS011;38721;53.098;6.596;2022-12-10T05:29:15;105.30;;;34.20;;
52858;SDS011;38721;53.098;6.596;2022-12-10T05:31:42;109.70;;;34.92;;
52858;SDS011;38721;53.098;6.596;2022-12-10T05:34:09;112.63;;;34.30;;
52858;SDS011;38721;53.098;6.596;2022-12-10T05:36:39;118.05;;;35.90;;
52858;SDS011;38721;53.098;6.596;2022-12-10T05:39:05;106.57;;;33.78;;
52858;SDS011;38721;53.098;6.596;2022-12-10T05:41:33;105.60;;;34.70;;
52858;SDS011;38721;53.098;6.596;2022-12-10T05:44:04;107.70;;;36.17;;
52858;SDS011;38721;53.098;6.596;2022-12-10T05:46:31;106.38;;;33.80;;
52858;SDS011;38721;53.098;6.596;2022-12-10T05:48:58;104.90;;;32.75;;
52858;SDS011;38721;53.098;6.596;2022-12-10T05:51:26;108.75;;;35.05;;
52858;SDS011;38721;53.098;6.596;2022-12-10T05:53:53;111.30;;;34.33;;
52858;SDS011;38721;53.098;6.596;2022-12-10T05:56:23;99.65;;;33.15;;
52858;SDS011;38721;53.098;6.596;2022-12-10T05:58:50;108.05;;;35.85;;
52858;SDS011;38721;53.098;6.596;2022-12-10T06:01:18;108.40;;;34.45;;
52858;SDS011;38721;53.098;6.596;2022-12-10T06:03:46;102.57;;;33.35;;
52858;SDS011;38721;53.098;6.596;2022-12-10T06:06:24;113.05;;;35.30;;
52858;SDS011;38721;53.098;6.596;2022-12-10T06:08:52;114.53;;;36.35;;
52858;SDS011;38721;53.098;6.596;2022-12-10T06:11:18;126.97;;;36.03;;
52858;SDS011;38721;53.098;6.596;2022-12-10T06:13:44;121.13;;;37.53;;
52858;SDS011;38721;53.098;6.596;2022-12-10T06:16:11;114.88;;;35.42;;
52858;SDS011;38721;53.098;6.596;2022-12-10T06:18:37;124.75;;;36.83;;
52858;SDS011;38721;53.098;6.596;2022-12-10T06:21:07;144.50;;;38.08;;
52858;SDS011;38721;53.098;6.596;2022-12-10T06:23:35;117.97;;;35.58;;
52858;SDS011;38721;53.098;6.596;2022-12-10T06:26:05;141.65;;;38.03;;
52858;SDS011;38721;53.098;6.596;2022-12-10T06:28:43;151.20;;;38.42;;
52858;SDS011;38721;53.098;6.596;2022-12-10T06:31:10;133.40;;;37.83;;
52858;SDS011;38721;53.098;6.596;2022-12-10T06:33:35;147.45;;;38.90;;
52858;SDS011;38721;53.098;6.596;2022-12-10T06:36:05;140.45;;;37.30;;
52858;SDS011;38721;53.098;6.596;2022-12-10T06:40:59;145.48;;;38.70;;
52858;SDS011;38721;53.098;6.596;2022-12-10T06:43:27;134.43;;;35.83;;
52858;SDS011;38721;53.098;6.596;2022-12-10T06:45:53;146.65;;;38.70;;
52858;SDS011;38721;53.098;6.596;2022-12-10T06:48:19;149.88;;;37.13;;
52858;SDS011;38721;53.098;6.596;2022-12-10T06:50:45;130.75;;;36.72;;
52858;SDS011;38721;53.098;6.596;2022-12-10T06:53:10;151.13;;;38.83;;
52858;SDS011;38721;53.098;6.596;2022-12-10T06:55:37;135.30;;;37.80;;
52858;SDS011;38721;53.098;6.596;2022-12-10T06:58:05;139.13;;;37.83;;
52858;SDS011;38721;53.098;6.596;2022-12-10T07:00:31;139.98;;;37.58;;
52858;SDS011;38721;53.098;6.596;2022-12-10T07:02:57;193.23;;;37.70;;
52858;SDS011;38721;53.098;6.596;2022-12-10T07:05:27;142.10;;;37.45;;
52858;SDS011;38721;53.098;6.596;2022-12-10T07:07:52;136.05;;;37.03;;
52858;SDS011;38721;53.098;6.596;2022-12-10T07:10:18;151.00;;;35.38;;
52858;SDS011;38721;53.098;6.596;2022-12-10T07:12:44;151.43;;;36.22;;
52858;SDS011;38721;53.098;6.596;2022-12-10T07:15:10;147.68;;;36.92;;
52858;SDS011;38721;53.098;6.596;2022-12-10T07:17:35;162.38;;;38.35;;
52858;SDS011;38721;53.098;6.596;2022-12-10T07:20:01;151.43;;;36.53;;
52858;SDS011;38721;53.098;6.596;2022-12-10T07:22:27;146.23;;;38.20;;
52858;SDS011;38721;53.098;6.596;2022-12-10T07:24:56;153.95;;;37.20;;
52858;SDS011;38721;53.098;6.596;2022-12-10T07:27:21;165.48;;;35.85;;
52858;SDS011;38721;53.098;6.596;2022-12-10T07:29:47;155.13;;;36.67;;
52858;SDS011;38721;53.098;6.596;2022-12-10T07:32:13;157.45;;;36.05;;
52858;SDS011;38721;53.098;6.596;2022-12-10T07:34:39;157.27;;;36.38;;
52858;SDS011;38721;53.098;6.596;2022-12-10T07:37:10;162.98;;;37.95;;
52858;SDS011;38721;53.098;6.596;2022-12-10T07:39:36;154.30;;;34.42;;
52858;SDS011;38721;53.098;6.596;2022-12-10T07:42:03;134.90;;;32.85;;
52858;SDS011;38721;53.098;6.596;2022-12-10T07:44:28;132.20;;;34.15;;
52858;SDS011;38721;53.098;6.596;2022-12-10T07:46:54;141.77;;;36.17;;
52858;SDS011;38721;53.098;6.596;2022-12-10T07:49:20;148.55;;;36.60;;
52858;SDS011;38721;53.098;6.596;2022-12-10T07:51:47;182.88;;;36.90;;
52858;SDS011;38721;53.098;6.596;2022-12-10T07:54:14;164.52;;;35.75;;
52858;SDS011;38721;53.098;6.596;2022-12-10T07:56:40;144.32;;;35.95;;
52858;SDS011;38721;53.098;6.596;2022-12-10T07:59:06;162.85;;;37.17;;
52858;SDS011;38721;53.098;6.596;2022-12-10T08:01:32;152.48;;;37.72;;
52858;SDS011;38721;53.098;6.596;2022-12-10T08:03:58;147.38;;;35.85;;
52858;SDS011;38721;53.098;6.596;2022-12-10T08:06:24;160.13;;;35.47;;
52858;SDS011;38721;53.098;6.596;2022-12-10T08:08:54;142.02;;;35.92;;
52858;SDS011;38721;53.098;6.596;2022-12-10T08:11:21;155.20;;;37.53;;
52858;SDS011;38721;53.098;6.596;2022-12-10T08:13:47;180.32;;;36.20;;
52858;SDS011;38721;53.098;6.596;2022-12-10T08:16:14;169.05;;;37.13;;
52858;SDS011;38721;53.098;6.596;2022-12-10T08:18:48;187.13;;;38.63;;
52858;SDS011;38721;53.098;6.596;2022-12-10T08:21:15;152.60;;;35.83;;
52858;SDS011;38721;53.098;6.596;2022-12-10T08:23:43;142.20;;;35.00;;
52858;SDS011;38721;53.098;6.596;2022-12-10T08:26:10;143.73;;;36.97;;
52858;SDS011;38721;53.098;6.596;2022-12-10T08:28:41;143.35;;;35.10;;
52858;SDS011;38721;53.098;6.596;2022-12-10T08:31:08;129.90;;;36.80;;
52858;SDS011;38721;53.098;6.596;2022-12-10T08:33:36;138.23;;;36.40;;
52858;SDS011;38721;53.098;6.596;2022-12-10T08:36:03;136.82;;;37.15;;
52858;SDS011;38721;53.098;6.596;2022-12-10T08:38:30;134.75;;;37.28;;
52858;SDS011;38721;53.098;6.596;2022-12-10T08:40:57;141.20;;;37.60;;
52858;SDS011;38721;53.098;6.596;2022-12-10T08:43:22;129.90;;;36.47;;
52858;SDS011;38721;53.098;6.596;2022-12-10T08:45:49;156.18;;;38.78;;
52858;SDS011;38721;53.098;6.596;2022-12-10T08:48:14;157.70;;;38.55;;
52858;SDS011;38721;53.098;6.596;2022-12-10T08:50:40;131.75;;;37.58;;
52858;SDS011;38721;53.098;6.596;2022-12-10T08:53:09;132.65;;;36.95;;
52858;SDS011;38721;53.098;6.596;2022-12-10T08:55:38;144.00;;;38.10;;
52858;SDS011;38721;53.098;6.596;2022-12-10T08:58:04;145.98;;;39.78;;
52858;SDS011;38721;53.098;6.596;2022-12-10T09:00:30;146.43;;;39.97;;
52858;SDS011;38721;53.098;6.596;2022-12-10T09:02:56;140.90;;;36.67;;
52858;SDS011;38721;53.098;6.596;2022-12-10T09:05:22;145.63;;;39.50;;
52858;SDS011;38721;53.098;6.596;2022-12-10T09:07:47;155.82;;;40.83;;
52858;SDS011;38721;53.098;6.596;2022-12-10T09:10:14;126.28;;;37.45;;
52858;SDS011;38721;53.098;6.596;2022-12-10T09:12:41;130.88;;;34.22;;
52858;SDS011;38721;53.098;6.596;2022-12-10T09:15:19;140.02;;;35.30;;
52858;SDS011;38721;53.098;6.596;2022-12-10T09:17:45;106.40;;;32.70;;
52858;SDS011;38721;53.098;6.596;2022-12-10T09:20:13;119.07;;;32.42;;
52858;SDS011;38721;53.098;6.596;2022-12-10T09:22:39;111.90;;;34.35;;
52858;SDS011;38721;53.098;6.596;2022-12-10T09:25:06;126.97;;;33.63;;
52858;SDS011;38721;53.098;6.596;2022-12-10T09:27:36;148.68;;;34.55;;
52858;SDS011;38721;53.098;6.596;2022-12-10T09:30:04;156.25;;;35.05;;
52858;SDS011;38721;53.098;6.596;2022-12-10T09:32:30;132.75;;;33.28;;
52858;SDS011;38721;53.098;6.596;2022-12-10T09:34:56;138.30;;;34.65;;
52858;SDS011;38721;53.098;6.596;2022-12-10T09:37:21;133.43;;;34.08;;
52858;SDS011;38721;53.098;6.596;2022-12-10T09:39:50;139.55;;;34.85;;
52858;SDS011;38721;53.098;6.596;2022-12-10T09:42:26;142.75;;;34.95;;
52858;SDS011;38721;53.098;6.596;2022-12-10T09:45:02;141.02;;;36.00;;
52858;SDS011;38721;53.098;6.596;2022-12-10T09:53:14;151.60;;;36.67;;
52858;SDS011;38721;53.098;6.596;2022-12-10T09:55:46;139.18;;;36.42;;
52858;SDS011;38721;53.098;6.596;2022-12-10T09:58:20;131.75;;;36.65;;
52858;SDS011;38721;53.098;6.596;2022-12-10T10:00:50;156.27;;;38.40;;
52858;SDS011;38721;53.098;6.596;2022-12-10T10:03:28;150.23;;;37.53;;
52858;SDS011;38721;53.098;6.596;2022-12-10T10:05:59;143.30;;;36.72;;
52858;SDS011;38721;53.098;6.596;2022-12-10T10:08:30;134.50;;;35.92;;
52858;SDS011;38721;53.098;6.596;2022-12-10T10:11:02;133.68;;;37.10;;
52858;SDS011;38721;53.098;6.596;2022-12-10T10:13:39;141.70;;;36.97;;
52858;SDS011;38721;53.098;6.596;2022-12-10T10:16:22;135.95;;;35.92;;
52858;SDS011;38721;53.098;6.596;2022-12-10T10:21:48;139.50;;;36.78;;
52858;SDS011;38721;53.098;6.596;2022-12-10T10:24:16;149.88;;;37.33;;
52858;SDS011;38721;53.098;6.596;2022-12-10T10:27:13;140.95;;;36.92;;
52858;SDS011;38721;53.098;6.596;2022-12-10T10:29:49;126.13;;;37.80;;
52858;SDS011;38721;53.098;6.596;2022-12-10T10:32:21;134.30;;;36.28;;
52858;SDS011;38721;53.098;6.596;2022-12-10T10:34:53;130.68;;;34.58;;
52858;SDS011;38721;53.098;6.596;2022-12-10T10:37:28;123.03;;;34.63;;
52858;SDS011;38721;53.098;6.596;2022-12-10T10:39:56;125.63;;;34.88;;
52858;SDS011;38721;53.098;6.596;2022-12-10T10:48:06;113.03;;;34.33;;
52858;SDS011;38721;53.098;6.596;2022-12-10T10:50:36;131.77;;;36.72;;
52858;SDS011;38721;53.098;6.596;2022-12-10T10:53:19;148.43;;;36.67;;
52858;SDS011;38721;53.098;6.596;2022-12-10T10:55:58;117.63;;;35.38;;
52858;SDS011;38721;53.098;6.596;2022-12-10T10:58:32;139.48;;;37.53;;
52858;SDS011;38721;53.098;6.596;2022-12-10T11:01:03;129.07;;;37.00;;
52858;SDS011;38721;53.098;6.596;2022-12-10T11:03:32;139.20;;;37.05;;
52858;SDS011;38721;53.098;6.596;2022-12-10T11:06:00;138.65;;;36.10;;
52858;SDS011;38721;53.098;6.596;2022-12-10T11:08:28;136.80;;;36.25;;
52858;SDS011;38721;53.098;6.596;2022-12-10T11:10:58;135.55;;;36.10;;
52858;SDS011;38721;53.098;6.596;2022-12-10T11:13:33;173.20;;;39.40;;
52858;SDS011;38721;53.098;6.596;2022-12-10T11:16:10;100.60;;;33.83;;
52858;SDS011;38721;53.098;6.596;2022-12-10T11:18:40;100.68;;;31.42;;
52858;SDS011;38721;53.098;6.596;2022-12-10T11:23:40;110.65;;;33.20;;
52858;SDS011;38721;53.098;6.596;2022-12-10T11:34:57;127.13;;;36.38;;
52858;SDS011;38721;53.098;6.596;2022-12-10T11:37:31;118.32;;;34.75;;
52858;SDS011;38721;53.098;6.596;2022-12-10T11:54:06;106.00;;;30.27;;
52858;SDS011;38721;53.098;6.596;2022-12-10T11:57:03;91.13;;;27.67;;
52858;SDS011;38721;53.098;6.596;2022-12-10T11:59:42;58.15;;;23.35;;
52858;SDS011;38721;53.098;6.596;2022-12-10T12:16:06;70.90;;;25.15;;
52858;SDS011;38721;53.098;6.596;2022-12-10T12:19:00;67.65;;;25.80;;
52858;SDS011;38721;53.098;6.596;2022-12-10T12:21:29;79.03;;;26.88;;
52858;SDS011;38721;53.098;6.596;2022-12-10T12:24:32;89.30;;;28.52;;
52858;SDS011;38721;53.098;6.596;2022-12-10T12:26:54;93.93;;;28.30;;
52858;SDS011;38721;53.098;6.596;2022-12-10T12:29:51;107.68;;;29.90;;
52858;SDS011;38721;53.098;6.596;2022-12-10T12:32:24;115.90;;;31.60;;
52858;SDS011;38721;53.098;6.596;2022-12-10T12:37:29;77.82;;;26.90;;
52858;SDS011;38721;53.098;6.596;2022-12-10T12:43:02;106.25;;;29.52;;
52858;SDS011;38721;53.098;6.596;2022-12-10T12:48:09;97.00;;;29.65;;
52858;SDS011;38721;53.098;6.596;2022-12-10T12:53:27;84.15;;;30.55;;
52858;SDS011;38721;53.098;6.596;2022-12-10T13:01:18;80.50;;;27.75;;
52858;SDS011;38721;53.098;6.596;2022-12-10T13:04:20;83.72;;;27.90;;
52858;SDS011;38721;53.098;6.596;2022-12-10T13:09:44;69.47;;;25.58;;
52858;SDS011;38721;53.098;6.596;2022-12-10T13:17:28;75.65;;;26.77;;
52858;SDS011;38721;53.098;6.596;2022-12-10T13:22:57;87.20;;;27.98;;
52858;SDS011;38721;53.098;6.596;2022-12-10T13:31:16;105.80;;;28.15;;
52858;SDS011;38721;53.098;6.596;2022-12-10T13:33:51;85.15;;;27.83;;
52858;SDS011;38721;53.098;6.596;2022-12-10T13:36:21;82.72;;;27.60;;
52858;SDS011;38721;53.098;6.596;2022-12-10T13:38:58;92.10;;;27.25;;
52858;SDS011;38721;53.098;6.596;2022-12-10T13:41:42;89.78;;;28.08;;
52858;SDS011;38721;53.098;6.596;2022-12-10T13:50:15;87.35;;;26.92;;
52858;SDS011;38721;53.098;6.596;2022-12-10T14:06:40;85.32;;;26.38;;
52858;SDS011;38721;53.098;6.596;2022-12-10T14:09:23;73.10;;;26.60;;
52858;SDS011;38721;53.098;6.596;2022-12-10T14:11:56;79.78;;;25.55;;
52858;SDS011;38721;53.098;6.596;2022-12-10T14:14:38;71.05;;;24.25;;
52858;SDS011;38721;53.098;6.596;2022-12-10T14:17:20;85.90;;;27.60;;
52858;SDS011;38721;53.098;6.596;2022-12-10T14:19:50;83.32;;;26.88;;
52858;SDS011;38721;53.098;6.596;2022-12-10T14:22:29;73.65;;;26.83;;
52858;SDS011;38721;53.098;6.596;2022-12-10T14:24:59;83.07;;;25.55;;
52858;SDS011;38721;53.098;6.596;2022-12-10T14:27:27;69.60;;;25.45;;
52858;SDS011;38721;53.098;6.596;2022-12-10T14:30:37;80.07;;;26.40;;
52858;SDS011;38721;53.098;6.596;2022-12-10T14:32:48;90.60;;;27.02;;
52858;SDS011;38721;53.098;6.596;2022-12-10T14:35:23;104.55;;;29.65;;
52858;SDS011;38721;53.098;6.596;2022-12-10T14:37:52;84.68;;;26.95;;
52858;SDS011;38721;53.098;6.596;2022-12-10T14:40:22;107.93;;;28.67;;
52858;SDS011;38721;53.098;6.596;2022-12-10T14:42:59;93.47;;;27.40;;
52858;SDS011;38721;53.098;6.596;2022-12-10T14:45:32;92.10;;;26.83;;
52858;SDS011;38721;53.098;6.596;2022-12-10T14:48:12;92.25;;;28.08;;
52858;SDS011;38721;53.098;6.596;2022-12-10T14:50:41;80.78;;;25.85;;
52858;SDS011;38721;53.098;6.596;2022-12-10T14:53:21;102.82;;;26.90;;
52858;SDS011;38721;53.098;6.596;2022-12-10T14:55:50;86.68;;;26.55;;
52858;SDS011;38721;53.098;6.596;2022-12-10T14:58:44;88.15;;;26.77;;
52858;SDS011;38721;53.098;6.596;2022-12-10T15:01:34;98.32;;;28.58;;
52858;SDS011;38721;53.098;6.596;2022-12-10T15:04:05;111.53;;;27.92;;
52858;SDS011;38721;53.098;6.596;2022-12-10T15:06:37;116.15;;;27.23;;
52858;SDS011;38721;53.098;6.596;2022-12-10T15:09:03;96.72;;;27.58;;
52858;SDS011;38721;53.098;6.596;2022-12-10T15:11:30;100.93;;;27.77;;
52858;SDS011;38721;53.098;6.596;2022-12-10T15:13:58;119.78;;;30.35;;
52858;SDS011;38721;53.098;6.596;2022-12-10T15:19:08;108.18;;;29.45;;
52858;SDS011;38721;53.098;6.596;2022-12-10T15:21:43;107.10;;;28.75;;
52858;SDS011;38721;53.098;6.596;2022-12-10T15:24:36;118.47;;;29.38;;
52858;SDS011;38721;53.098;6.596;2022-12-10T15:30:00;78.13;;;22.85;;
52858;SDS011;38721;53.098;6.596;2022-12-10T15:33:12;83.25;;;24.38;;
52858;SDS011;38721;53.098;6.596;2022-12-10T15:35:56;84.35;;;24.10;;
52858;SDS011;38721;53.098;6.596;2022-12-10T15:38:24;90.63;;;27.23;;
52858;SDS011;38721;53.098;6.596;2022-12-10T15:40:49;90.75;;;24.55;;
52858;SDS011;38721;53.098;6.596;2022-12-10T15:45:55;100.20;;;25.13;;
52858;SDS011;38721;53.098;6.596;2022-12-10T15:48:28;86.88;;;25.77;;
52858;SDS011;38721;53.098;6.596;2022-12-10T15:50:55;93.97;;;25.67;;
52858;SDS011;38721;53.098;6.596;2022-12-10T15:53:27;86.10;;;24.88;;
52858;SDS011;38721;53.098;6.596;2022-12-10T15:55:59;109.75;;;24.17;;
52858;SDS011;38721;53.098;6.596;2022-12-10T15:58:25;101.80;;;24.65;;
52858;SDS011;38721;53.098;6.596;2022-12-10T16:00:50;88.03;;;23.55;;
52858;SDS011;38721;53.098;6.596;2022-12-10T16:03:16;103.10;;;26.83;;
52858;SDS011;38721;53.098;6.596;2022-12-10T16:05:44;90.05;;;24.10;;
52858;SDS011;38721;53.098;6.596;2022-12-10T16:08:28;96.72;;;24.48;;
52858;SDS011;38721;53.098;6.596;2022-12-10T16:10:55;93.40;;;24.67;;
52858;SDS011;38721;53.098;6.596;2022-12-10T16:13:31;90.07;;;23.77;;
52858;SDS011;38721;53.098;6.596;2022-12-10T16:16:04;93.07;;;24.48;;
52858;SDS011;38721;53.098;6.596;2022-12-10T16:18:32;101.53;;;24.52;;
52858;SDS011;38721;53.098;6.596;2022-12-10T16:20:57;116.78;;;25.08;;
52858;SDS011;38721;53.098;6.596;2022-12-10T16:23:23;107.45;;;26.45;;
52858;SDS011;38721;53.098;6.596;2022-12-10T16:25:49;105.75;;;24.60;;
52858;SDS011;38721;53.098;6.596;2022-12-10T16:28:16;108.38;;;24.70;;
52858;SDS011;38721;53.098;6.596;2022-12-10T16:30:44;107.32;;;25.75;;
52858;SDS011;38721;53.098;6.596;2022-12-10T16:33:14;115.20;;;25.55;;
52858;SDS011;38721;53.098;6.596;2022-12-10T16:35:42;131.48;;;25.35;;
52858;SDS011;38721;53.098;6.596;2022-12-10T16:38:09;106.95;;;26.30;;
52858;SDS011;38721;53.098;6.596;2022-12-10T16:40:35;117.35;;;26.23;;
52858;SDS011;38721;53.098;6.596;2022-12-10T16:43:01;140.95;;;26.27;;
52858;SDS011;38721;53.098;6.596;2022-12-10T16:45:28;100.13;;;23.90;;
52858;SDS011;38721;53.098;6.596;2022-12-10T16:48:08;131.18;;;25.63;;
52858;SDS011;38721;53.098;6.596;2022-12-10T16:50:34;103.57;;;24.95;;
52858;SDS011;38721;53.098;6.596;2022-12-10T16:53:02;126.15;;;26.30;;
52858;SDS011;38721;53.098;6.596;2022-12-10T16:55:36;124.25;;;26.60;;
52858;SDS011;38721;53.098;6.596;2022-12-10T16:58:02;114.32;;;26.58;;
52858;SDS011;38721;53.098;6.596;2022-12-10T17:00:29;110.93;;;25.27;;
52858;SDS011;38721;53.098;6.596;2022-12-10T17:02:55;92.50;;;26.20;;